createdAt,value
2023-05-01T00:00:06.559Z,100514.53
2023-05-01T00:02:35.870Z,100512.94
2023-05-01T00:05:03.320Z,100507.25
2023-05-01T00:07:31.106Z,100497.72
2023-05-01T00:09:58.314Z,100510.19
2023-05-01T00:12:25.907Z,100500.41
2023-05-01T00:14:54.234Z,100496.66
2023-05-01T00:17:22.750Z,100496.13
2023-05-01T00:19:53.568Z,100491.78
2023-05-01T00:22:21.271Z,100475.78
2023-05-01T00:24:49.067Z,100486.88
2023-05-01T00:27:16.116Z,100476.59
2023-05-01T00:29:42.960Z,100473.34
2023-05-01T00:32:10.150Z,100475.25
2023-05-01T00:34:36.998Z,100471.75
2023-05-01T00:37:04.714Z,100465.22
2023-05-01T00:39:31.432Z,100474.16
2023-05-01T00:41:58.157Z,100470.91
2023-05-01T00:44:24.890Z,100463.06
2023-05-01T00:46:51.765Z,100459.53
2023-05-01T00:49:18.616Z,100456.56
2023-05-01T00:51:49.442Z,100454.66
2023-05-01T00:54:16.247Z,100460.06
2023-05-01T00:56:43.259Z,100451.94
2023-05-01T00:59:10.506Z,100454.09
2023-05-01T01:01:37.412Z,100445.47
2023-05-01T01:04:04.511Z,100446.81
2023-05-01T01:06:52.689Z,100441.94
2023-05-01T01:09:32.966Z,100434.63
2023-05-01T01:12:09.029Z,100432.75
2023-05-01T01:15:17.322Z,100433.28
2023-05-01T01:17:51.565Z,100427.31
2023-05-01T01:20:39.714Z,100429.22
2023-05-01T01:23:25.385Z,100423.78
2023-05-01T01:26:17.398Z,100418.13
2023-05-01T01:29:04.691Z,100421.91
2023-05-01T01:31:53.755Z,100415.97
2023-05-01T01:34:33.145Z,100418.94
2023-05-01T01:37:11.699Z,100420.78
2023-05-01T01:39:58.153Z,100422.19
2023-05-01T01:42:30.126Z,100416.47
2023-05-01T01:45:02.967Z,100417.56
2023-05-01T01:47:33.400Z,100424.84
2023-05-01T01:50:05.063Z,100417.00
2023-05-01T01:52:35.326Z,100407.00
2023-05-01T01:55:09.706Z,100410.47
2023-05-01T01:57:43.817Z,100412.09
2023-05-01T02:00:12.596Z,100411.75
2023-05-01T02:02:48.053Z,100423.34
2023-05-01T02:05:17.184Z,100428.41
2023-05-01T02:07:46.975Z,100427.19
2023-05-01T02:10:15.054Z,100415.75
2023-05-01T02:12:45.996Z,100413.94
2023-05-01T02:15:17.530Z,100413.59
2023-05-01T02:17:44.847Z,100412.50
2023-05-01T02:20:12.997Z,100414.16
2023-05-01T02:22:40.956Z,100421.31
2023-05-01T02:25:11.776Z,100417.28
2023-05-01T02:27:45.009Z,100418.63
2023-05-01T02:30:12.346Z,100416.44
2023-05-01T02:32:39.079Z,100412.03
2023-05-01T02:35:06.633Z,100418.00
2023-05-01T02:37:33.493Z,100409.38
2023-05-01T02:40:04.008Z,100407.75
2023-05-01T02:42:33.140Z,100408.75
2023-05-01T02:45:09.251Z,100407.22
2023-05-01T02:47:39.282Z,100403.47
2023-05-01T02:50:08.113Z,100394.81
2023-05-01T02:52:35.027Z,100397.78
2023-05-01T02:55:21.669Z,100393.50
2023-05-01T02:57:51.283Z,100395.91
2023-05-01T03:00:18.763Z,100392.63
2023-05-01T03:02:46.488Z,100394.78
2023-05-01T03:05:13.847Z,100390.06
2023-05-01T03:07:40.483Z,100395.91
2023-05-01T03:10:07.800Z,100390.50
2023-05-01T03:12:34.480Z,100388.31
2023-05-01T03:15:01.143Z,100389.41
2023-05-01T03:17:31.641Z,100388.88
2023-05-01T03:19:58.547Z,100386.44
2023-05-01T03:22:25.259Z,100379.94
2023-05-01T03:24:51.940Z,100373.97
2023-05-01T03:27:18.567Z,100376.38
2023-05-01T03:29:45.465Z,100376.81
2023-05-01T03:32:12.227Z,100376.34
2023-05-01T03:34:38.974Z,100378.44
2023-05-01T03:37:06.361Z,100382.06
2023-05-01T03:39:33.071Z,100378.22
2023-05-01T03:42:18.188Z,100375.31
2023-05-01T03:44:45.716Z,100377.72
2023-05-01T03:47:13.045Z,100381.00
2023-05-01T03:49:43.602Z,100379.34
2023-05-01T03:52:14.552Z,100362.78
2023-05-01T03:54:42.348Z,100371.47
2023-05-01T03:57:20.763Z,100366.31
2023-05-01T03:59:47.491Z,100375.75
2023-05-01T04:02:14.253Z,100372.88
2023-05-01T04:04:41.690Z,100367.91
2023-05-01T04:07:08.391Z,100359.81
2023-05-01T04:09:35.524Z,100371.19
2023-05-01T04:12:02.337Z,100367.38
2023-05-01T04:14:29.369Z,100370.69
2023-05-01T04:16:56.582Z,100363.16
2023-05-01T04:19:23.479Z,100367.00
2023-05-01T04:21:54.176Z,100365.25
2023-05-01T04:24:21.101Z,100363.75
2023-05-01T04:26:47.769Z,100365.91
2023-05-01T04:29:14.520Z,100365.41
2023-05-01T04:31:41.692Z,100364.41
2023-05-01T04:34:08.719Z,100372.72
2023-05-01T04:36:37.069Z,100367.31
2023-05-01T04:39:04.006Z,100370.34
2023-05-01T04:41:30.974Z,100370.13
2023-05-01T04:43:57.667Z,100368.72
2023-05-01T04:46:24.375Z,100369.75
2023-05-01T04:48:51.248Z,100375.97
2023-05-01T04:51:18.056Z,100373.03
2023-05-01T04:53:44.705Z,100380.59
2023-05-01T04:56:20.241Z,100377.31
2023-05-01T04:58:48.520Z,100371.97
2023-05-01T05:01:19.650Z,100376.72
2023-05-01T05:03:49.541Z,100376.19
2023-05-01T05:06:17.008Z,100374.41
2023-05-01T05:08:44.015Z,100377.84
2023-05-01T05:11:11.831Z,100375.47
2023-05-01T05:13:58.917Z,100367.94
2023-05-01T05:16:25.900Z,100372.41
2023-05-01T05:18:56.122Z,100377.28
2023-05-01T05:21:22.913Z,100377.44
2023-05-01T05:23:55.985Z,100378.53
2023-05-01T05:26:23.214Z,100379.91
2023-05-01T05:28:50.904Z,100377.66
2023-05-01T05:31:17.590Z,100380.06
2023-05-01T05:33:44.726Z,100376.63
2023-05-01T05:36:13.688Z,100375.66
2023-05-01T05:38:42.930Z,100373.28
2023-05-01T05:41:13.580Z,100371.38
2023-05-01T05:43:40.244Z,100379.25
2023-05-01T05:46:10.395Z,100374.28
2023-05-01T05:48:38.418Z,100373.31
2023-05-01T05:51:05.878Z,100379.53
2023-05-01T05:53:32.603Z,100377.91
2023-05-01T05:55:59.376Z,100374.28
2023-05-01T05:58:26.380Z,100370.25
2023-05-01T06:00:54.547Z,100376.78
2023-05-01T06:03:22.013Z,100378.13
2023-05-01T06:05:50.762Z,100374.00
2023-05-01T06:08:17.825Z,100375.75
2023-05-01T06:10:44.836Z,100372.84
2023-05-01T06:13:14.073Z,100367.75
2023-05-01T06:15:47.760Z,100369.91
2023-05-01T06:18:14.685Z,100373.16
2023-05-01T06:20:41.614Z,100366.97
2023-05-01T06:23:09.627Z,100365.34
2023-05-01T06:25:45.373Z,100365.34
2023-05-01T06:28:12.007Z,100368.03
2023-05-01T06:30:38.691Z,100371.53
2023-05-01T06:33:05.412Z,100364.75
2023-05-01T06:35:33.070Z,100367.50
2023-05-01T06:38:00.288Z,100361.84
2023-05-01T06:40:27.027Z,100362.66
2023-05-01T06:42:54.301Z,100363.97
2023-05-01T06:45:27.365Z,100369.91
2023-05-01T06:47:54.308Z,100367.13
2023-05-01T06:50:21.079Z,100363.69
2023-05-01T06:52:47.789Z,100370.03
2023-05-01T06:55:14.551Z,100370.19
2023-05-01T06:57:41.926Z,100372.38
2023-05-01T07:00:10.796Z,100371.09
2023-05-01T07:02:38.290Z,100364.94
2023-05-01T07:05:05.615Z,100371.56
2023-05-01T07:07:32.502Z,100371.78
2023-05-01T07:09:59.441Z,100371.59
2023-05-01T07:12:26.742Z,100369.69
2023-05-01T07:14:53.449Z,100374.00
2023-05-01T07:17:20.101Z,100373.13
2023-05-01T07:19:46.811Z,100371.03
2023-05-01T07:22:13.488Z,100374.31
2023-05-01T07:24:40.260Z,100372.16
2023-05-01T07:27:07.273Z,100371.59
2023-05-01T07:29:36.882Z,100373.22
2023-05-01T07:32:05.783Z,100379.19
2023-05-01T07:34:32.992Z,100385.09
2023-05-01T07:36:59.608Z,100383.25
2023-05-01T07:39:26.366Z,100382.69
2023-05-01T07:41:52.982Z,100378.84
2023-05-01T07:44:19.669Z,100371.84
2023-05-01T07:46:47.095Z,100375.38
2023-05-01T07:49:13.754Z,100368.88
2023-05-01T07:51:40.620Z,100368.59
2023-05-01T07:54:07.414Z,100366.16
2023-05-01T07:56:34.078Z,100364.53
2023-05-01T07:59:00.901Z,100365.59
2023-05-01T08:01:27.674Z,100361.81
2023-05-01T08:03:54.452Z,100362.06
2023-05-01T08:06:21.264Z,100367.53
2023-05-01T08:08:48.028Z,100367.75
2023-05-01T08:11:14.787Z,100369.09
2023-05-01T08:13:41.453Z,100367.97
2023-05-01T08:16:08.208Z,100370.47
2023-05-01T08:18:34.907Z,100371.53
2023-05-01T08:21:01.729Z,100373.47
2023-05-01T08:23:28.500Z,100370.47
2023-05-01T08:25:55.219Z,100378.06
2023-05-01T08:28:23.047Z,100379.41
2023-05-01T08:30:50.153Z,100367.53
2023-05-01T08:33:16.928Z,100375.09
2023-05-01T08:35:43.655Z,100372.13
2023-05-01T08:38:11.781Z,100370.22
2023-05-01T08:40:41.101Z,100372.06
2023-05-01T08:43:08.200Z,100376.16
2023-05-01T08:45:37.559Z,100373.72
2023-05-01T08:48:07.746Z,100373.16
2023-05-01T08:50:36.489Z,100373.16
2023-05-01T08:53:05.111Z,100377.25
2023-05-01T08:55:33.344Z,100372.25
2023-05-01T08:58:01.848Z,100373.53
2023-05-01T09:00:29.461Z,100372.41
2023-05-01T09:03:00.090Z,100376.28
2023-05-01T09:05:27.092Z,100368.84
2023-05-01T09:07:55.157Z,100366.03
2023-05-01T09:10:22.328Z,100364.69
2023-05-01T09:12:55.215Z,100377.50
2023-05-01T09:15:22.756Z,100370.19
2023-05-01T09:17:50.579Z,100366.19
2023-05-01T09:20:19.265Z,100369.25
2023-05-01T09:22:46.121Z,100365.56
2023-05-01T09:25:13.078Z,100365.59
2023-05-01T09:27:39.716Z,100365.06
2023-05-01T09:30:07.589Z,100366.03
2023-05-01T09:32:34.474Z,100360.44
2023-05-01T09:35:12.492Z,100353.34
2023-05-01T09:37:40.903Z,100361.00
2023-05-01T09:40:13.016Z,100367.03
2023-05-01T09:42:49.518Z,100358.44
2023-05-01T09:45:17.480Z,100347.44
2023-05-01T09:47:45.598Z,100362.50
2023-05-01T09:50:29.250Z,100360.94
2023-05-01T09:52:55.993Z,100353.97
2023-05-01T09:55:25.421Z,100350.19
2023-05-01T09:57:52.931Z,100348.34
2023-05-01T10:00:22.105Z,100354.13
2023-05-01T10:02:50.358Z,100345.38
2023-05-01T10:05:18.252Z,100351.50
2023-05-01T10:08:02.058Z,100354.34
2023-05-01T10:10:29.415Z,100347.84
2023-05-01T10:12:56.615Z,100352.94
2023-05-01T10:15:26.602Z,100351.06
2023-05-01T10:17:54.361Z,100358.41
2023-05-01T10:20:21.603Z,100358.88
2023-05-01T10:22:48.882Z,100361.91
2023-05-01T10:25:17.868Z,100360.16
2023-05-01T10:27:44.729Z,100362.59
2023-05-01T10:30:11.712Z,100360.34
2023-05-01T10:32:41.035Z,100352.38
2023-05-01T10:35:19.571Z,100355.41
2023-05-01T10:37:48.478Z,100351.88
2023-05-01T10:40:40.435Z,100350.72
2023-05-01T10:43:25.812Z,100349.81
2023-05-01T10:45:53.697Z,100349.28
2023-05-01T10:48:42.413Z,100347.69
2023-05-01T10:51:11.326Z,100344.53
2023-05-01T10:53:39.357Z,100336.50
2023-05-01T10:56:26.989Z,100335.31
2023-05-01T10:58:53.656Z,100340.63
2023-05-01T11:01:38.128Z,100339.09
2023-05-01T11:04:27.968Z,100345.84
2023-05-01T11:07:11.324Z,100329.88
2023-05-01T11:09:39.296Z,100328.34
2023-05-01T11:12:07.048Z,100328.94
2023-05-01T11:14:52.286Z,100332.84
2023-05-01T11:17:41.244Z,100325.72
2023-05-01T11:20:23.979Z,100331.47
2023-05-01T11:22:54.402Z,100318.78
2023-05-01T11:25:27.495Z,100328.56
2023-05-01T11:27:56.973Z,100316.81
2023-05-01T11:30:24.332Z,100328.06
2023-05-01T11:32:52.215Z,100320.03
2023-05-01T11:35:21.890Z,100327.41
2023-05-01T11:37:49.202Z,100321.44
2023-05-01T11:40:30.309Z,100325.72
2023-05-01T11:43:04.856Z,100315.34
2023-05-01T11:45:33.025Z,100315.53
2023-05-01T11:48:03.461Z,100320.69
2023-05-01T11:50:36.066Z,100309.66
2023-05-01T11:53:11.603Z,100317.91
2023-05-01T12:01:49.868Z,100308.34
2023-05-01T12:04:31.626Z,100312.53
2023-05-01T12:06:59.218Z,100304.38
2023-05-01T12:09:29.272Z,100304.81
2023-05-01T12:11:59.555Z,100309.00
2023-05-01T12:14:26.370Z,100307.03
2023-05-01T12:16:53.417Z,100304.50
2023-05-01T12:19:21.714Z,100301.59
2023-05-01T12:21:48.604Z,100310.63
2023-05-01T12:24:17.958Z,100308.34
2023-05-01T12:26:46.122Z,100308.81
2023-05-01T12:29:13.284Z,100305.75
2023-05-01T12:31:48.225Z,100299.13
2023-05-01T12:34:15.487Z,100302.69
2023-05-01T12:36:42.257Z,100305.00
2023-05-01T12:39:12.148Z,100297.47
2023-05-01T12:41:40.781Z,100302.72
2023-05-01T12:44:20.365Z,100301.19
2023-05-01T12:46:54.911Z,100296.88
2023-05-01T12:49:23.338Z,100295.69
2023-05-01T12:51:55.440Z,100294.06
2023-05-01T12:54:23.857Z,100289.91
2023-05-01T12:56:53.330Z,100293.13
2023-05-01T12:59:22.068Z,100296.56
2023-05-01T13:01:57.199Z,100299.53
2023-05-01T13:04:24.810Z,100302.53
2023-05-01T13:06:56.069Z,100293.53
2023-05-01T13:09:27.675Z,100286.38
2023-05-01T13:12:02.856Z,100281.25
2023-05-01T13:14:32.806Z,100289.22
2023-05-01T13:16:59.452Z,100289.66
2023-05-01T13:19:29.489Z,100280.16
2023-05-01T13:21:58.035Z,100287.41
2023-05-01T13:24:35.600Z,100285.16
2023-05-01T13:27:04.861Z,100286.16
2023-05-01T13:29:32.847Z,100287.19
2023-05-01T13:31:59.758Z,100281.75
2023-05-01T13:34:34.164Z,100286.78
2023-05-01T13:37:01.808Z,100274.56
2023-05-01T13:39:28.978Z,100277.47
2023-05-01T13:41:56.139Z,100278.22
2023-05-01T13:44:23.015Z,100277.50
2023-05-01T13:46:49.996Z,100273.06
2023-05-01T13:49:22.716Z,100271.63
2023-05-01T13:51:49.592Z,100273.88
2023-05-01T13:54:16.742Z,100267.00
2023-05-01T13:56:43.406Z,100267.44
2023-05-01T13:59:10.680Z,100267.06
2023-05-01T14:01:45.848Z,100263.34
2023-05-01T14:04:18.190Z,100264.97
2023-05-01T14:06:48.382Z,100254.09
2023-05-01T14:09:18.392Z,100258.00
2023-05-01T14:11:46.970Z,100249.22
2023-05-01T14:14:18.275Z,100251.38
2023-05-01T14:16:52.065Z,100251.31
2023-05-01T14:19:18.802Z,100247.31
2023-05-01T14:21:46.747Z,100254.78
2023-05-01T14:24:15.145Z,100242.00
2023-05-01T14:26:43.599Z,100251.97
2023-05-01T14:29:27.912Z,100240.59
2023-05-01T14:31:55.748Z,100239.88
2023-05-01T14:34:22.880Z,100249.63
2023-05-01T14:36:50.260Z,100233.84
2023-05-01T14:39:17.199Z,100238.69
2023-05-01T14:41:43.941Z,100241.47
2023-05-01T14:44:14.025Z,100234.56
2023-05-01T14:46:47.064Z,100242.94
2023-05-01T14:49:22.409Z,100249.38
2023-05-01T14:51:49.558Z,100239.22
2023-05-01T14:54:16.485Z,100239.16
2023-05-01T14:56:43.978Z,100243.25
2023-05-01T14:59:11.143Z,100238.69
2023-05-01T15:01:38.858Z,100245.59
2023-05-01T15:04:10.863Z,100245.06
2023-05-01T15:06:37.946Z,100242.28
2023-05-01T15:09:05.291Z,100241.75
2023-05-01T15:11:32.146Z,100247.81
2023-05-01T15:13:59.276Z,100249.03
2023-05-01T15:16:26.609Z,100240.34
2023-05-01T15:18:53.459Z,100240.75
2023-05-01T15:21:20.205Z,100235.59
2023-05-01T15:23:47.014Z,100234.78
2023-05-01T15:26:14.170Z,100237.66
2023-05-01T15:28:40.939Z,100235.41
2023-05-01T15:31:07.705Z,100234.47
2023-05-01T15:33:34.423Z,100237.38
2023-05-01T15:36:01.168Z,100239.97
2023-05-01T15:38:28.358Z,100233.94
2023-05-01T15:40:56.224Z,100248.59
2023-05-01T15:43:23.382Z,100243.50
2023-05-01T15:45:51.286Z,100252.63
2023-05-01T15:48:18.103Z,100245.78
2023-05-01T15:50:46.127Z,100248.69
2023-05-01T15:53:16.933Z,100253.84
2023-05-01T15:55:43.656Z,100256.47
2023-05-01T15:58:10.327Z,100259.88
2023-05-01T16:00:39.538Z,100255.09
2023-05-01T16:03:07.810Z,100249.13
2023-05-01T16:05:37.091Z,100254.19
2023-05-01T16:08:06.444Z,100252.97
2023-05-01T16:10:37.220Z,100254.88
2023-05-01T16:13:08.140Z,100258.00
2023-05-01T16:15:37.693Z,100267.16
2023-05-01T16:18:04.873Z,100264.25
2023-05-01T16:20:42.828Z,100270.63
2023-05-01T16:23:09.560Z,100273.09
2023-05-01T16:25:36.305Z,100270.47
2023-05-01T16:28:06.011Z,100265.31
2023-05-01T16:30:32.837Z,100271.66
2023-05-01T16:33:03.045Z,100274.94
2023-05-01T16:35:29.801Z,100278.81
2023-05-01T16:37:56.542Z,100278.91
2023-05-01T16:40:23.337Z,100287.31
2023-05-01T16:42:54.281Z,100288.22
2023-05-01T16:45:21.689Z,100289.22
2023-05-01T16:47:48.733Z,100291.38
2023-05-01T16:50:16.998Z,100286.44
2023-05-01T16:52:43.892Z,100291.38
2023-05-01T16:55:10.750Z,100289.75
2023-05-01T16:57:37.470Z,100283.78
2023-05-01T17:00:09.320Z,100286.94
2023-05-01T17:02:36.268Z,100293.75
2023-05-01T17:05:03.342Z,100299.66
2023-05-01T17:07:30.208Z,100291.03
2023-05-01T17:09:56.955Z,100295.69
2023-05-01T17:12:23.872Z,100303.03
2023-05-01T17:14:53.657Z,100294.16
2023-05-01T17:17:21.400Z,100296.28
2023-05-01T17:19:48.486Z,100297.34
2023-05-01T17:22:15.322Z,100297.81
2023-05-01T17:24:42.025Z,100298.56
2023-05-01T17:27:08.855Z,100305.81
2023-05-01T17:29:35.550Z,100300.97
2023-05-01T17:32:02.562Z,100307.44
2023-05-01T17:34:29.483Z,100315.91
2023-05-01T17:36:57.920Z,100320.41
2023-05-01T17:39:25.983Z,100319.63
2023-05-01T17:41:52.800Z,100328.06
2023-05-01T17:44:19.558Z,100324.81
2023-05-01T17:46:46.250Z,100321.81
2023-05-01T17:49:14.088Z,100329.56
2023-05-01T17:51:40.823Z,100328.53
2023-05-01T17:54:07.626Z,100325.91
2023-05-01T17:56:34.302Z,100332.97
2023-05-01T17:59:01.076Z,100338.00
2023-05-01T18:01:28.616Z,100336.59
2023-05-01T18:03:55.595Z,100342.03
2023-05-01T18:06:22.429Z,100349.13
2023-05-01T18:08:50.053Z,100350.66
2023-05-01T18:11:16.991Z,100347.59
2023-05-01T18:13:47.262Z,100353.41
2023-05-01T18:16:16.763Z,100353.41
2023-05-01T18:18:43.427Z,100369.56
2023-05-01T18:21:10.204Z,100361.56
2023-05-01T18:23:36.891Z,100364.59
2023-05-01T18:26:03.756Z,100364.63
2023-05-01T18:28:31.558Z,100367.63
2023-05-01T18:30:58.461Z,100367.03
2023-05-01T18:33:25.284Z,100375.25
2023-05-01T18:35:52.071Z,100373.06
2023-05-01T18:38:18.924Z,100384.00
2023-05-01T18:40:45.596Z,100382.31
2023-05-01T18:43:14.034Z,100383.69
2023-05-01T18:45:40.913Z,100386.88
2023-05-01T18:48:08.328Z,100395.09
2023-05-01T18:50:35.187Z,100397.81
2023-05-01T18:53:01.848Z,100400.84
2023-05-01T18:55:28.590Z,100411.47
2023-05-01T18:57:55.259Z,100414.84
2023-05-01T19:00:23.028Z,100413.03
2023-05-01T19:02:53.006Z,100422.28
2023-05-01T19:05:19.939Z,100426.38
2023-05-01T19:07:46.920Z,100432.22
2023-05-01T19:10:14.075Z,100440.22
2023-05-01T19:12:41.991Z,100439.75
2023-05-01T19:15:09.589Z,100443.34
2023-05-01T19:17:36.708Z,100453.28
2023-05-01T19:20:04.307Z,100459.34
2023-05-01T19:22:31.841Z,100454.53
2023-05-01T19:24:59.960Z,100467.75
2023-05-01T19:27:26.694Z,100464.47
2023-05-01T19:29:54.397Z,100470.16
2023-05-01T19:32:21.165Z,100477.22
2023-05-01T19:34:47.959Z,100483.41
2023-05-01T19:37:14.629Z,100482.59
2023-05-01T19:39:41.283Z,100481.91
2023-05-01T19:42:07.970Z,100488.22
2023-05-01T19:44:34.620Z,100494.38
2023-05-01T19:47:01.818Z,100491.03
2023-05-01T19:49:28.545Z,100485.16
2023-05-01T19:51:57.450Z,100492.13
2023-05-01T19:54:28.582Z,100496.25
2023-05-01T19:56:56.049Z,100497.13
2023-05-01T19:59:23.235Z,100503.53
2023-05-01T20:01:50.094Z,100499.47
2023-05-01T20:04:17.063Z,100500.03
2023-05-01T20:06:43.880Z,100501.81
2023-05-01T20:09:10.896Z,100510.16
2023-05-01T20:11:37.648Z,100507.47
2023-05-01T20:14:04.495Z,100508.03
2023-05-01T20:16:31.311Z,100510.44
2023-05-01T20:18:58.095Z,100508.28
2023-05-01T20:21:24.859Z,100506.69
2023-05-01T20:23:51.578Z,100515.09
2023-05-01T20:26:18.941Z,100525.09
2023-05-01T20:28:45.728Z,100521.59
2023-05-01T20:31:13.373Z,100526.97
2023-05-01T20:33:40.244Z,100517.53
2023-05-01T20:36:07.269Z,100519.41
2023-05-01T20:38:46.298Z,100527.53
2023-05-01T20:41:13.631Z,100531.34
2023-05-01T20:43:40.813Z,100527.56
2023-05-01T20:46:07.678Z,100529.72
2023-05-01T20:48:34.639Z,100531.34
2023-05-01T20:51:01.443Z,100533.50
2023-05-01T20:53:28.216Z,100534.31
2023-05-01T20:55:54.867Z,100538.91
2023-05-01T20:58:21.578Z,100533.22
2023-05-01T21:00:48.255Z,100540.03
2023-05-01T21:03:16.079Z,100545.41
2023-05-01T21:05:42.949Z,100550.84
2023-05-01T21:08:09.688Z,100549.19
2023-05-01T21:10:36.791Z,100554.59
2023-05-01T21:13:03.841Z,100567.63
2023-05-01T21:15:31.828Z,100557.34
2023-05-01T21:17:58.700Z,100569.00
2023-05-01T21:20:35.343Z,100579.03
2023-05-01T21:23:02.331Z,100580.09
2023-05-01T21:25:31.592Z,100583.91
2023-05-01T21:28:02.016Z,100586.88
2023-05-01T21:30:34.657Z,100576.06
2023-05-01T21:33:05.052Z,100576.84
2023-05-01T21:35:32.285Z,100577.41
2023-05-01T21:37:59.295Z,100576.31
2023-05-01T21:40:27.020Z,100574.16
2023-05-01T21:42:54.521Z,100576.84
2023-05-01T21:45:21.625Z,100582.81
2023-05-01T21:47:50.823Z,100584.47
2023-05-01T21:50:19.867Z,100581.19
2023-05-01T21:52:50.892Z,100586.88
2023-05-01T21:55:24.345Z,100584.44
2023-05-01T21:57:51.120Z,100595.56
2023-05-01T22:00:19.075Z,100601.50
2023-05-01T22:02:48.134Z,100595.00
2023-05-01T22:05:17.883Z,100600.72
2023-05-01T22:07:46.976Z,100596.34
2023-05-01T22:10:18.466Z,100588.69
2023-05-01T22:12:46.101Z,100595.28
2023-05-01T22:15:15.474Z,100599.91
2023-05-01T22:17:42.719Z,100600.38
2023-05-01T22:20:09.973Z,100604.97
2023-05-01T22:22:38.202Z,100611.81
2023-05-01T22:25:06.242Z,100602.59
2023-05-01T22:27:33.566Z,100609.66
2023-05-01T22:30:01.063Z,100616.41
2023-05-01T22:32:30.779Z,100606.94
2023-05-01T22:34:57.661Z,100616.97
2023-05-01T22:37:25.751Z,100615.88
2023-05-01T22:39:53.326Z,100621.84
2023-05-01T22:42:20.036Z,100618.56
2023-05-01T22:44:46.821Z,100622.91
2023-05-01T22:47:13.536Z,100631.03
2023-05-01T22:49:40.220Z,100622.66
2023-05-01T22:52:07.042Z,100626.72
2023-05-01T22:54:33.816Z,100638.09
2023-05-01T22:57:00.599Z,100640.25
2023-05-01T22:59:27.346Z,100640.78
2023-05-01T23:01:54.641Z,100639.44
2023-05-01T23:04:21.510Z,100639.44
2023-05-01T23:06:48.252Z,100636.16
2023-05-01T23:09:15.644Z,100639.59
2023-05-01T23:11:42.404Z,100642.66
2023-05-01T23:14:09.489Z,100637.47
2023-05-01T23:16:41.233Z,100643.66
2023-05-01T23:19:20.247Z,100640.16
2023-05-01T23:21:47.903Z,100636.38
2023-05-01T23:24:21.053Z,100641.34
2023-05-01T23:26:48.844Z,100638.63
2023-05-01T23:29:18.183Z,100638.88
2023-05-01T23:31:47.628Z,100643.97
2023-05-01T23:34:17.227Z,100634.56
2023-05-01T23:36:46.085Z,100622.63
2023-05-01T23:39:13.338Z,100632.66
2023-05-01T23:41:40.490Z,100626.69
2023-05-01T23:44:07.751Z,100630.97
2023-05-01T23:46:34.674Z,100632.59
2023-05-01T23:49:01.553Z,100638.09
2023-05-01T23:51:28.816Z,100641.28
2023-05-01T23:53:55.614Z,100645.28
2023-05-01T23:56:22.284Z,100642.59
2023-05-01T23:58:48.976Z,100639.00
